createdAt,value
2018-07-07T00:00:38.344Z,92.10
2018-07-07T00:03:07.392Z,91.80
2018-07-07T00:05:36.430Z,92.00
2018-07-07T00:08:05.440Z,92.10
2018-07-07T00:10:34.450Z,92.00
2018-07-07T00:18:01.033Z,92.30
2018-07-07T00:20:29.974Z,92.30
2018-07-07T00:22:59.726Z,92.40
2018-07-07T00:27:57.118Z,92.40
2018-07-07T00:30:26.168Z,92.60
2018-07-07T00:32:55.146Z,92.40
2018-07-07T00:35:24.158Z,92.10
2018-07-07T00:37:53.498Z,92.10
2018-07-07T00:40:23.375Z,92.10
2018-07-07T00:42:52.336Z,92.40
2018-07-07T00:45:21.310Z,92.50
2018-07-07T00:47:50.271Z,92.40
2018-07-07T00:52:48.531Z,91.80
2018-07-07T00:55:17.597Z,91.90
2018-07-07T00:57:47.405Z,92.00
2018-07-07T01:00:16.349Z,91.60
2018-07-07T01:05:24.898Z,91.80
2018-07-07T01:07:54.113Z,92.10
2018-07-07T01:10:23.050Z,92.10
2018-07-07T01:12:52.017Z,92.30
2018-07-07T01:15:21.015Z,92.40
2018-07-07T01:17:50.028Z,92.50
2018-07-07T01:20:18.980Z,92.30
2018-07-07T01:22:47.935Z,92.00
2018-07-07T01:27:45.514Z,92.10
2018-07-07T01:32:43.026Z,92.20
2018-07-07T01:35:12.088Z,91.70
2018-07-07T01:37:41.139Z,91.70
2018-07-07T01:40:10.142Z,91.60
2018-07-07T01:42:39.143Z,92.00
2018-07-07T01:45:08.175Z,91.70
2018-07-07T01:47:37.448Z,91.90
2018-07-07T01:52:34.897Z,92.20
2018-07-07T01:55:03.867Z,92.20
2018-07-07T01:57:32.838Z,92.00
2018-07-07T02:00:01.842Z,91.90
2018-07-07T02:02:30.777Z,91.70
2018-07-07T02:04:59.733Z,91.80
2018-07-07T02:07:28.680Z,91.60
2018-07-07T02:10:00.492Z,91.60
2018-07-07T02:12:29.444Z,91.70
2018-07-07T02:14:58.416Z,91.50
2018-07-07T02:19:55.813Z,91.70
2018-07-07T02:22:25.425Z,91.60
2018-07-07T02:24:54.409Z,91.60
2018-07-07T02:27:24.419Z,91.60
2018-07-07T02:29:54.091Z,91.50
2018-07-07T02:32:23.088Z,91.40
2018-07-07T02:34:52.038Z,91.30
2018-07-07T02:37:20.946Z,90.90
2018-07-07T02:39:49.882Z,91.20
2018-07-07T02:47:15.760Z,92.10
2018-07-07T02:49:44.760Z,92.30
2018-07-07T02:52:13.782Z,93.20
2018-07-07T02:54:42.770Z,93.30
2018-07-07T02:57:11.691Z,93.30
2018-07-07T03:02:09.212Z,92.90
2018-07-07T03:04:38.160Z,92.70
2018-07-07T03:12:04.104Z,92.60
2018-07-07T03:17:01.629Z,92.40
2018-07-07T03:19:30.609Z,92.70
2018-07-07T03:21:59.623Z,92.80
2018-07-07T03:24:28.561Z,92.40
2018-07-07T03:29:25.981Z,92.30
2018-07-07T03:31:54.921Z,92.50
2018-07-07T03:36:52.391Z,92.40
2018-07-07T03:41:49.817Z,92.30
2018-07-07T03:44:19.535Z,92.20
2018-07-07T03:46:48.533Z,92.70
2018-07-07T03:49:17.488Z,92.90
2018-07-07T03:51:46.424Z,93.00
2018-07-07T03:54:15.410Z,92.60
2018-07-07T03:56:44.384Z,92.60
2018-07-07T03:59:13.349Z,92.80
2018-07-07T04:01:42.255Z,92.70
2018-07-07T04:04:11.198Z,92.60
2018-07-07T04:06:40.146Z,92.40
2018-07-07T04:09:09.101Z,92.50
2018-07-07T04:11:38.079Z,92.30
2018-07-07T04:16:35.514Z,93.20
2018-07-07T04:19:04.421Z,92.30
2018-07-07T04:21:33.314Z,92.40
2018-07-07T04:24:02.282Z,92.50
2018-07-07T04:26:31.189Z,92.40
2018-07-07T04:29:00.163Z,91.80
2018-07-07T04:31:29.087Z,91.80
2018-07-07T04:33:58.044Z,91.90
2018-07-07T04:36:27.042Z,92.00
2018-07-07T04:38:55.957Z,92.00
2018-07-07T04:41:24.862Z,91.90
2018-07-07T04:46:22.649Z,91.90
2018-07-07T04:51:20.070Z,92.00
2018-07-07T04:53:48.976Z,91.80
2018-07-07T04:56:17.971Z,91.80
2018-07-07T04:58:47.044Z,92.00
2018-07-07T05:01:16.012Z,91.90
2018-07-07T05:03:44.942Z,92.00
2018-07-07T05:06:13.888Z,92.00
2018-07-07T05:08:42.798Z,92.10
2018-07-07T05:11:11.772Z,92.50
2018-07-07T05:13:40.734Z,92.50
2018-07-07T05:16:09.636Z,92.30
2018-07-07T05:21:07.102Z,92.20
2018-07-07T05:26:04.552Z,92.10
2018-07-07T05:28:33.541Z,92.00
2018-07-07T05:31:02.469Z,92.40
2018-07-07T05:35:59.916Z,92.10
2018-07-07T05:38:28.801Z,92.10
2018-07-07T05:40:57.751Z,92.20
2018-07-07T05:43:26.723Z,92.50
2018-07-07T05:45:55.704Z,92.50
2018-07-07T05:48:24.650Z,92.60
2018-07-07T05:50:53.632Z,92.50
2018-07-07T05:53:22.622Z,92.50
2018-07-07T05:55:51.543Z,92.50
2018-07-07T05:58:20.500Z,92.60
2018-07-07T06:00:49.485Z,92.60
2018-07-07T06:03:19.290Z,92.30
2018-07-07T06:05:48.481Z,93.00
2018-07-07T06:08:17.477Z,93.30
2018-07-07T06:10:46.393Z,93.20
2018-07-07T06:13:15.330Z,93.30
2018-07-07T06:15:44.284Z,92.60
2018-07-07T06:18:13.236Z,92.60
2018-07-07T06:20:42.277Z,92.20
2018-07-07T06:23:11.259Z,91.90
2018-07-07T06:25:40.228Z,91.10
2018-07-07T06:28:09.208Z,91.30
2018-07-07T06:30:39.056Z,91.10
2018-07-07T06:33:09.172Z,91.00
2018-07-07T06:35:43.783Z,90.90
2018-07-07T06:38:16.281Z,91.00
2018-07-07T06:40:46.313Z,91.30
2018-07-07T06:43:16.508Z,90.80
2018-07-07T06:48:24.256Z,90.60
2018-07-07T06:50:57.089Z,91.00
2018-07-07T06:53:27.982Z,91.30
2018-07-07T06:55:57.099Z,91.40
2018-07-07T06:58:32.751Z,91.40
2018-07-07T07:01:01.908Z,91.10
2018-07-07T07:03:30.871Z,90.90
2018-07-07T07:05:59.856Z,91.00
2018-07-07T07:08:28.847Z,91.00
2018-07-07T07:10:57.825Z,90.10
2018-07-07T07:13:26.853Z,90.90
2018-07-07T07:15:55.826Z,89.90
2018-07-07T07:18:24.834Z,89.20
2018-07-07T07:20:53.786Z,87.80
2018-07-07T07:23:22.735Z,86.40
2018-07-07T07:25:51.702Z,86.60
2018-07-07T07:28:20.681Z,85.00
2018-07-07T07:30:49.670Z,85.10
2018-07-07T07:33:18.569Z,84.80
2018-07-07T07:35:47.538Z,84.10
2018-07-07T07:38:16.476Z,84.10
2018-07-07T07:40:45.404Z,85.70
2018-07-07T07:43:14.356Z,85.60
2018-07-07T07:45:43.428Z,86.90
2018-07-07T07:48:12.423Z,86.70
2018-07-07T07:50:41.396Z,85.50
2018-07-07T07:55:45.571Z,85.20
2018-07-07T07:58:14.516Z,84.10
2018-07-07T08:05:40.641Z,81.10
2018-07-07T08:10:38.090Z,82.80
2018-07-07T08:13:07.230Z,83.30
2018-07-07T08:15:36.148Z,83.00
2018-07-07T08:18:05.256Z,81.20
2018-07-07T08:20:34.228Z,81.40
2018-07-07T08:23:03.160Z,82.10
2018-07-07T08:25:32.071Z,82.50
2018-07-07T08:30:29.571Z,82.00
2018-07-07T08:32:58.561Z,83.00
2018-07-07T08:35:27.589Z,79.70
2018-07-07T08:42:54.643Z,81.20
2018-07-07T08:45:23.695Z,80.40
2018-07-07T08:50:21.139Z,79.90
2018-07-07T08:52:50.048Z,79.10
2018-07-07T08:55:19.029Z,78.70
2018-07-07T08:57:48.012Z,79.80
2018-07-07T09:00:18.200Z,79.30
2018-07-07T09:02:47.229Z,80.70
2018-07-07T09:05:16.178Z,81.00
2018-07-07T09:07:45.166Z,81.60
2018-07-07T09:10:14.138Z,82.50
2018-07-07T09:15:11.715Z,80.80
2018-07-07T09:20:09.176Z,75.90
2018-07-07T09:22:38.188Z,74.70
2018-07-07T09:25:07.129Z,73.40
2018-07-07T09:27:36.092Z,74.40
2018-07-07T09:30:05.351Z,74.70
2018-07-07T09:32:34.637Z,73.00
2018-07-07T09:35:03.691Z,70.90
2018-07-07T09:37:32.651Z,72.80
2018-07-07T09:40:01.590Z,73.20
2018-07-07T09:42:30.518Z,73.70
2018-07-07T09:44:59.479Z,74.80
2018-07-07T09:47:28.481Z,72.60
2018-07-07T09:49:57.431Z,72.50
2018-07-07T09:52:26.398Z,72.10
2018-07-07T09:57:23.967Z,68.80
2018-07-07T10:02:21.421Z,67.40
2018-07-07T19:07:28.996Z,50.20
2018-07-07T19:09:57.971Z,51.30
2018-07-07T19:12:26.861Z,51.70
2018-07-07T19:15:26.559Z,51.60
2018-07-07T19:17:55.581Z,50.90
2018-07-07T19:20:29.668Z,50.90
2018-07-07T19:23:03.900Z,51.90
2018-07-07T19:25:38.130Z,50.90
2018-07-07T19:28:07.080Z,50.80
2018-07-07T19:30:36.044Z,51.20
2018-07-07T19:33:10.117Z,50.00
2018-07-07T19:35:44.252Z,51.30
2018-07-07T19:40:41.760Z,47.70
2018-07-07T19:43:10.800Z,46.50
2018-07-07T19:48:08.291Z,48.20
2018-07-07T19:53:12.261Z,48.50
2018-07-07T19:55:41.347Z,48.20
2018-07-07T19:58:10.312Z,48.90
2018-07-07T20:00:39.347Z,52.20
2018-07-07T20:03:08.556Z,53.40
2018-07-07T20:05:37.555Z,53.40
2018-07-07T20:08:06.551Z,53.30
2018-07-07T20:10:35.526Z,52.00
2018-07-07T20:13:04.553Z,53.10
2018-07-07T20:19:16.960Z,51.10
2018-07-07T20:21:49.399Z,51.50
2018-07-07T20:24:21.228Z,51.40
2018-07-07T20:29:24.170Z,53.60
2018-07-07T20:31:54.458Z,55.00
2018-07-07T20:34:24.660Z,54.90
2018-07-07T20:41:52.575Z,54.70
2018-07-07T20:44:21.605Z,55.20
2018-07-07T20:46:50.768Z,54.10
2018-07-07T20:49:19.711Z,55.70
2018-07-07T20:51:48.688Z,55.70
2018-07-07T20:54:17.622Z,55.50
2018-07-07T20:56:46.599Z,54.40
2018-07-07T20:59:15.560Z,52.10
2018-07-07T21:01:44.568Z,53.10
2018-07-07T21:04:13.562Z,53.90
2018-07-07T21:06:42.817Z,54.90
2018-07-07T21:09:11.790Z,59.40
2018-07-07T21:16:37.756Z,60.70
2018-07-07T21:24:03.657Z,59.90
2018-07-07T21:26:32.705Z,59.50
2018-07-07T21:29:01.686Z,59.60
2018-07-07T21:31:30.720Z,59.80
2018-07-07T21:33:59.675Z,59.50
2018-07-07T21:36:28.644Z,59.30
2018-07-07T21:38:57.688Z,59.60
2018-07-07T21:41:26.707Z,59.40
2018-07-07T21:43:55.814Z,60.20
2018-07-07T21:46:24.958Z,61.00
2018-07-07T21:48:53.932Z,60.00
2018-07-07T21:51:22.926Z,59.80
2018-07-07T21:53:52.067Z,60.40
2018-07-07T22:01:35.368Z,61.40
2018-07-07T22:04:09.360Z,60.90
2018-07-07T22:07:46.204Z,60.70
2018-07-07T22:10:15.181Z,59.40
2018-07-07T22:12:44.114Z,59.80
2018-07-07T22:15:13.107Z,60.00
2018-07-07T22:17:42.073Z,59.90
2018-07-07T22:20:11.012Z,60.10
2018-07-07T22:22:40.011Z,62.00
2018-07-07T22:27:37.549Z,63.00
2018-07-07T22:30:06.511Z,62.50
2018-07-07T22:32:39.411Z,62.50
2018-07-07T22:36:16.200Z,64.60
2018-07-07T22:38:50.246Z,65.40
2018-07-07T22:41:19.274Z,65.00
2018-07-07T22:43:48.218Z,64.60
2018-07-07T22:46:17.136Z,65.60
2018-07-07T22:51:14.613Z,63.90
2018-07-07T22:56:12.011Z,64.20
2018-07-07T22:58:40.957Z,64.20
2018-07-07T23:01:09.956Z,65.20
2018-07-07T23:06:07.440Z,65.50
2018-07-07T23:11:04.980Z,66.50
2018-07-07T23:13:33.946Z,66.40
2018-07-07T23:16:02.961Z,65.70
2018-07-07T23:18:31.932Z,65.20
2018-07-07T23:21:00.866Z,65.40
2018-07-07T23:23:29.820Z,65.70
2018-07-07T23:25:58.746Z,65.90
2018-07-07T23:28:27.763Z,66.20
2018-07-07T23:33:25.241Z,66.10
2018-07-07T23:35:54.159Z,67.20
2018-07-07T23:38:23.099Z,68.20
2018-07-07T23:40:52.051Z,68.70
2018-07-07T23:43:21.012Z,69.00
2018-07-07T23:45:49.941Z,69.10
2018-07-07T23:48:18.870Z,69.50
2018-07-07T23:53:16.375Z,69.40
2018-07-07T23:55:45.331Z,69.10
2018-07-07T23:58:14.289Z,69.20
